createdAt,value
2023-03-23T15:59:45.696Z,52.92
2023-03-23T16:02:22.287Z,53.42
2023-03-23T16:04:50.892Z,53.36
2023-03-23T16:07:23.313Z,53.44
2023-03-23T16:09:52.569Z,53.57
2023-03-23T16:12:20.669Z,53.89
2023-03-23T16:14:48.593Z,54.31
2023-03-23T16:17:21.771Z,54.06
2023-03-23T16:19:49.997Z,53.73
2023-03-23T16:22:18.802Z,54.23
2023-03-23T16:24:46.810Z,54.13
2023-03-23T16:27:16.179Z,54.32
2023-03-23T16:30:00.349Z,54.39
2023-03-23T16:32:31.855Z,54.58
2023-03-23T16:34:59.748Z,54.76
2023-03-23T16:37:33.202Z,55.73
2023-03-23T16:40:01.416Z,56.14
2023-03-23T16:42:50.611Z,56.77
2023-03-23T16:45:19.419Z,56.02
2023-03-23T16:47:47.577Z,56.41
2023-03-23T16:50:17.886Z,56.85
2023-03-23T16:52:49.579Z,56.31
2023-03-23T16:55:18.470Z,56.99
2023-03-23T16:57:46.465Z,56.91
2023-03-23T17:00:20.243Z,56.95
2023-03-23T17:02:51.834Z,57.41
2023-03-23T17:05:31.214Z,56.91
2023-03-23T17:08:14.002Z,57.66
2023-03-23T17:10:43.709Z,57.55
2023-03-23T17:13:12.264Z,57.56
2023-03-23T17:15:46.877Z,58.43
2023-03-23T17:18:16.662Z,58.72
2023-03-23T17:20:50.437Z,60.08
2023-03-23T17:23:18.343Z,61.16
2023-03-23T17:25:51.137Z,60.13
2023-03-23T17:28:33.404Z,60.00
2023-03-23T17:31:09.219Z,61.21
2023-03-23T17:33:37.493Z,60.00
2023-03-23T17:36:05.820Z,60.40
2023-03-23T17:38:36.908Z,59.99
2023-03-23T17:41:07.910Z,59.88
2023-03-23T17:43:36.350Z,60.05
2023-03-23T17:46:04.510Z,60.44
2023-03-23T17:48:35.256Z,60.67
2023-03-23T17:51:07.570Z,60.73
2023-03-23T17:53:40.906Z,60.66
2023-03-23T17:56:27.643Z,61.01
2023-03-23T17:58:55.992Z,61.14
2023-03-23T18:01:24.041Z,61.02
2023-03-23T18:03:53.879Z,60.81
2023-03-23T18:06:24.924Z,61.06
2023-03-23T18:08:55.760Z,61.34
2023-03-23T18:11:24.151Z,61.14
2023-03-23T18:13:52.222Z,61.26
2023-03-23T18:16:21.883Z,61.44
2023-03-23T18:18:50.020Z,61.82
2023-03-23T18:21:19.227Z,61.60
2023-03-23T18:23:58.312Z,62.06
2023-03-23T18:26:27.486Z,61.93
2023-03-23T18:28:57.637Z,62.33
2023-03-23T18:31:28.887Z,62.15
2023-03-23T18:33:57.263Z,62.37
2023-03-23T18:36:29.010Z,62.16
2023-03-23T18:38:59.140Z,62.41
2023-03-23T18:41:48.923Z,62.75
2023-03-23T18:44:21.375Z,62.93
2023-03-23T18:46:49.458Z,62.92
2023-03-23T18:49:17.468Z,63.49
2023-03-23T18:51:47.216Z,63.61
2023-03-23T18:54:15.096Z,63.58
2023-03-23T18:56:49.150Z,64.14
2023-03-23T18:59:17.181Z,64.35
2023-03-23T19:01:45.326Z,64.31
2023-03-23T19:04:14.607Z,64.24
2023-03-23T19:06:59.749Z,64.75
2023-03-23T19:09:27.726Z,65.17
2023-03-23T19:11:59.598Z,64.79
2023-03-23T19:14:31.240Z,65.12
2023-03-23T19:17:02.640Z,65.02
2023-03-23T19:22:03.331Z,65.39
2023-03-23T19:24:31.507Z,65.76
2023-03-23T19:27:00.656Z,65.69
2023-03-23T19:29:29.483Z,65.46
2023-03-23T19:32:09.412Z,65.83
2023-03-23T19:34:39.526Z,66.33
2023-03-23T19:37:11.266Z,66.24
2023-03-23T19:39:43.081Z,66.21
2023-03-23T19:42:23.881Z,66.81
2023-03-23T19:44:51.868Z,67.03
2023-03-23T19:47:19.779Z,66.73
2023-03-23T19:49:48.308Z,67.01
2023-03-23T19:52:18.802Z,67.47
2023-03-23T19:54:46.938Z,67.99
2023-03-23T19:57:15.475Z,67.93
2023-03-23T19:59:44.289Z,68.04
2023-03-23T20:02:12.654Z,68.08
2023-03-23T20:04:41.391Z,68.29
2023-03-23T20:07:09.988Z,68.38
2023-03-23T20:09:39.640Z,68.27
2023-03-23T20:12:09.660Z,68.51
2023-03-23T20:14:38.210Z,68.67
2023-03-23T20:17:09.832Z,69.12
2023-03-23T20:19:38.460Z,68.51
2023-03-23T20:22:06.715Z,68.82
2023-03-23T20:24:34.650Z,69.48
2023-03-23T20:27:04.107Z,69.31
2023-03-23T20:29:33.472Z,69.29
2023-03-23T20:32:01.698Z,69.09
2023-03-23T20:34:32.251Z,68.86
2023-03-23T20:37:02.628Z,68.68
2023-03-23T20:39:32.847Z,68.68
2023-03-23T20:42:05.826Z,68.48
2023-03-23T20:44:35.089Z,68.97
2023-03-23T20:47:04.363Z,69.18
2023-03-23T20:49:33.267Z,68.82
2023-03-23T20:52:01.203Z,68.53
2023-03-23T20:54:29.910Z,68.56
2023-03-23T20:56:58.619Z,68.59
2023-03-23T20:59:28.643Z,68.47
2023-03-23T21:01:56.981Z,68.60
2023-03-23T21:04:27.402Z,68.63
2023-03-23T21:07:02.250Z,68.86
2023-03-23T21:09:30.859Z,68.94
2023-03-23T21:12:00.766Z,69.13
2023-03-23T21:14:44.899Z,70.00
2023-03-23T21:17:21.626Z,69.65
2023-03-23T21:19:49.982Z,69.78
2023-03-23T21:22:19.074Z,71.44
2023-03-23T21:24:50.374Z,72.05
2023-03-23T21:27:18.963Z,73.30
2023-03-23T21:29:48.840Z,73.05
2023-03-23T21:32:16.962Z,74.22
2023-03-23T21:34:47.452Z,74.16
2023-03-23T21:37:16.147Z,74.32
2023-03-23T21:39:56.547Z,74.00
2023-03-23T21:42:30.054Z,75.20
2023-03-23T21:45:02.735Z,75.53
2023-03-23T21:47:31.798Z,75.33
2023-03-23T21:50:00.313Z,75.45
2023-03-23T21:52:28.357Z,77.21
2023-03-23T21:54:58.834Z,76.65
2023-03-23T21:57:26.765Z,77.45
2023-03-23T21:59:55.795Z,77.44
2023-03-23T22:02:40.015Z,78.31
2023-03-23T22:05:26.773Z,76.91
2023-03-23T22:07:57.073Z,77.45
2023-03-23T22:10:25.327Z,78.09
2023-03-23T22:12:55.617Z,77.73
2023-03-23T22:15:28.013Z,77.51
2023-03-23T22:17:57.976Z,77.49
2023-03-23T22:20:26.838Z,77.58
2023-03-23T22:22:55.128Z,78.54
2023-03-23T22:25:23.111Z,77.96
2023-03-23T22:27:52.456Z,77.98
2023-03-23T22:30:21.284Z,79.31
2023-03-23T22:32:49.331Z,80.97
2023-03-23T22:35:18.807Z,80.86
2023-03-23T22:37:47.117Z,80.55
2023-03-23T22:40:15.198Z,81.33
2023-03-23T22:42:43.107Z,82.16
2023-03-23T22:45:11.151Z,82.67
2023-03-23T22:47:39.612Z,81.85
2023-03-23T22:50:13.430Z,84.17
2023-03-23T22:52:43.309Z,84.00
2023-03-23T22:55:11.247Z,83.31
2023-03-23T22:57:39.207Z,84.24
2023-03-23T23:00:14.446Z,83.80
2023-03-23T23:03:01.214Z,81.07
2023-03-23T23:05:41.984Z,79.63
2023-03-23T23:08:14.668Z,79.55
2023-03-23T23:10:47.907Z,78.49
2023-03-23T23:13:16.845Z,80.67
2023-03-23T23:15:50.016Z,81.62
2023-03-23T23:18:18.111Z,81.90
2023-03-23T23:20:49.450Z,79.44
2023-03-23T23:23:19.247Z,79.53
2023-03-23T23:25:48.113Z,77.33
2023-03-23T23:28:17.013Z,78.99
2023-03-23T23:30:46.382Z,79.58
2023-03-23T23:33:15.626Z,77.55
2023-03-23T23:35:44.841Z,77.11
2023-03-23T23:38:13.142Z,78.68
2023-03-23T23:40:43.776Z,79.45
2023-03-23T23:43:12.851Z,83.21
2023-03-23T23:45:41.155Z,83.93
2023-03-23T23:48:09.965Z,83.41
2023-03-23T23:50:47.423Z,83.27
2023-03-23T23:53:27.850Z,84.53
2023-03-23T23:56:01.547Z,84.18
2023-03-23T23:58:30.006Z,83.91
